createdAt,value
2019-01-30T00:01:45.305Z,7.67
2019-01-30T00:04:13.225Z,7.60
2019-01-30T00:06:41.498Z,7.10
2019-01-30T00:09:09.739Z,6.87
2019-01-30T00:11:38.039Z,5.17
2019-01-30T00:14:05.677Z,7.00
2019-01-30T00:16:33.910Z,7.67
2019-01-30T00:21:35.944Z,5.10
2019-01-30T00:24:03.614Z,6.00
2019-01-30T00:26:50.880Z,12.13
2019-01-30T00:29:18.834Z,6.87
2019-01-30T00:31:46.802Z,7.37
2019-01-30T00:34:14.838Z,6.87
2019-01-30T00:36:43.058Z,7.87
2019-01-30T00:39:11.326Z,6.40
2019-01-30T00:41:39.618Z,7.07
2019-01-30T00:44:07.877Z,5.57
2019-01-30T00:46:35.525Z,6.47
2019-01-30T00:49:03.519Z,6.87
2019-01-30T00:51:31.704Z,5.90
2019-01-30T00:53:59.686Z,7.80
2019-01-30T00:56:28.078Z,7.80
2019-01-30T00:58:56.306Z,6.60
2019-01-30T01:01:24.988Z,8.10
2019-01-30T01:03:53.316Z,6.60
2019-01-30T01:06:21.641Z,5.90
2019-01-30T01:08:49.632Z,7.93
2019-01-30T01:11:17.657Z,5.03
2019-01-30T01:13:45.328Z,6.40
2019-01-30T01:16:12.973Z,8.33
2019-01-30T01:18:41.296Z,5.20
2019-01-30T01:21:09.258Z,6.90
2019-01-30T01:23:37.178Z,6.40
2019-01-30T01:26:04.818Z,6.50
2019-01-30T01:28:32.489Z,4.60
2019-01-30T01:31:00.409Z,6.60
2019-01-30T01:33:28.959Z,5.27
2019-01-30T01:35:56.971Z,4.93
2019-01-30T01:38:25.043Z,4.93
2019-01-30T01:40:52.993Z,6.07
2019-01-30T01:43:21.312Z,6.30
2019-01-30T01:45:49.767Z,6.77
2019-01-30T01:48:18.128Z,7.40
2019-01-30T01:56:07.152Z,3.87
2019-01-30T02:01:08.645Z,6.43
2019-01-30T02:03:36.649Z,4.30
2019-01-30T02:09:12.055Z,4.83
2019-01-30T02:11:40.630Z,5.77
2019-01-30T02:14:09.009Z,6.70
2019-01-30T02:16:37.340Z,6.27
2019-01-30T02:21:52.781Z,4.70
2019-01-30T02:24:20.754Z,6.70
2019-01-30T02:26:49.030Z,8.40
2019-01-30T02:29:17.297Z,5.63
2019-01-30T02:31:44.958Z,5.50
2019-01-30T02:34:13.237Z,6.93
2019-01-30T02:37:00.369Z,8.23
2019-01-30T02:39:28.755Z,6.97
2019-01-30T02:41:57.013Z,9.80
2019-01-30T02:44:24.897Z,6.63
2019-01-30T02:46:52.930Z,10.67
2019-01-30T02:49:20.872Z,6.87
2019-01-30T02:51:49.203Z,6.90
2019-01-30T02:54:17.245Z,7.33
2019-01-30T02:56:44.881Z,7.90
2019-01-30T02:59:12.870Z,7.50
2019-01-30T03:01:59.718Z,6.30
2019-01-30T03:04:27.556Z,7.57
2019-01-30T03:06:55.502Z,5.97
2019-01-30T03:09:23.822Z,5.00
2019-01-30T03:11:52.110Z,6.80
2019-01-30T03:14:20.482Z,7.63
2019-01-30T03:16:48.428Z,7.90
2019-01-30T03:19:16.704Z,6.97
2019-01-30T03:21:44.953Z,6.37
2019-01-30T03:24:12.617Z,6.27
2019-01-30T03:26:40.838Z,7.83
2019-01-30T03:29:09.213Z,6.37
2019-01-30T03:31:36.867Z,8.30
2019-01-30T03:34:05.224Z,6.20
2019-01-30T03:36:33.847Z,5.57
2019-01-30T03:39:01.760Z,5.27
2019-01-30T03:41:29.761Z,5.37
2019-01-30T03:43:57.746Z,5.37
2019-01-30T03:46:25.754Z,6.20
2019-01-30T03:48:53.950Z,4.90
2019-01-30T03:51:21.617Z,7.43
2019-01-30T03:53:50.134Z,4.90
2019-01-30T03:56:17.896Z,5.83
2019-01-30T03:58:45.830Z,5.73
2019-01-30T04:01:13.563Z,4.83
2019-01-30T04:03:41.226Z,5.07
2019-01-30T04:06:09.737Z,6.33
2019-01-30T04:08:37.717Z,4.03
2019-01-30T04:11:05.932Z,6.17
2019-01-30T04:13:33.885Z,5.97
2019-01-30T04:16:02.169Z,7.60
2019-01-30T04:21:03.642Z,4.80
2019-01-30T04:26:04.793Z,5.70
2019-01-30T04:28:32.742Z,10.10
2019-01-30T04:31:00.755Z,4.73
2019-01-30T04:33:29.403Z,6.20
2019-01-30T04:38:45.121Z,4.73
2019-01-30T04:41:13.093Z,8.27
2019-01-30T04:43:41.266Z,5.67
2019-01-30T04:46:09.458Z,4.53
2019-01-30T04:48:37.386Z,5.40
2019-01-30T04:51:24.676Z,5.60
2019-01-30T04:53:52.694Z,4.43
2019-01-30T04:56:21.289Z,5.57
2019-01-30T04:58:49.243Z,5.50
2019-01-30T05:01:16.899Z,7.80
2019-01-30T05:03:44.930Z,6.20
2019-01-30T05:06:12.599Z,5.30
2019-01-30T05:08:40.530Z,6.47
2019-01-30T05:11:08.801Z,6.23
2019-01-30T05:13:37.405Z,6.20
2019-01-30T05:16:05.625Z,8.10
2019-01-30T05:21:25.522Z,5.13
2019-01-30T05:23:53.588Z,5.83
2019-01-30T05:26:21.309Z,6.60
2019-01-30T05:28:49.878Z,5.30
2019-01-30T05:33:51.446Z,6.30
2019-01-30T05:36:19.146Z,4.20
2019-01-30T05:38:47.482Z,6.27
2019-01-30T05:41:15.417Z,4.53
2019-01-30T05:43:43.325Z,5.37
2019-01-30T05:46:10.993Z,5.27
2019-01-30T05:48:38.910Z,5.30
2019-01-30T05:51:07.234Z,6.57
2019-01-30T05:53:35.245Z,6.20
2019-01-30T05:56:03.537Z,6.60
2019-01-30T06:01:05.048Z,5.10
2019-01-30T06:03:33.317Z,5.87
2019-01-30T06:06:01.249Z,4.10
2019-01-30T06:08:29.262Z,5.23
2019-01-30T06:10:56.914Z,7.17
2019-01-30T06:13:24.868Z,5.30
2019-01-30T06:16:12.210Z,8.23
2019-01-30T06:18:40.169Z,7.03
2019-01-30T06:21:27.171Z,6.60
2019-01-30T06:23:55.586Z,5.90
2019-01-30T06:26:23.806Z,5.67
2019-01-30T06:28:51.741Z,6.00
2019-01-30T06:31:19.388Z,6.10
2019-01-30T06:33:47.757Z,7.00
2019-01-30T06:36:16.113Z,7.83
2019-01-30T06:38:44.714Z,7.63
2019-01-30T06:41:12.657Z,7.40
2019-01-30T06:43:40.305Z,9.00
2019-01-30T06:46:08.241Z,7.33
2019-01-30T06:48:36.480Z,8.93
2019-01-30T06:51:04.406Z,9.00
2019-01-30T06:53:32.642Z,7.77
2019-01-30T06:56:01.018Z,8.23
2019-01-30T06:58:29.289Z,8.60
2019-01-30T07:03:44.552Z,7.33
2019-01-30T07:06:12.505Z,7.63
2019-01-30T07:08:40.172Z,8.90
2019-01-30T07:11:10.606Z,9.07
2019-01-30T07:13:37.406Z,8.40
2019-01-30T07:16:05.363Z,8.30
2019-01-30T07:18:34.734Z,7.40
2019-01-30T07:23:49.905Z,8.87
2019-01-30T07:26:18.097Z,9.20
2019-01-30T07:29:06.970Z,8.43
2019-01-30T07:31:35.328Z,8.30
2019-01-30T07:34:03.417Z,10.00
2019-01-30T07:36:31.077Z,11.37
2019-01-30T07:38:59.060Z,8.57
2019-01-30T07:41:27.377Z,9.00
2019-01-30T07:43:55.107Z,9.93
2019-01-30T07:46:22.765Z,9.20
2019-01-30T07:51:20.502Z,8.90
2019-01-30T07:53:51.493Z,8.27
2019-01-30T07:56:19.933Z,8.33
2019-01-30T07:58:48.200Z,9.23
2019-01-30T08:04:23.981Z,9.33
2019-01-30T08:06:52.172Z,8.53
2019-01-30T08:09:19.845Z,8.17
2019-01-30T08:11:48.076Z,8.70
2019-01-30T08:14:15.742Z,9.90
2019-01-30T08:16:43.398Z,7.87
2019-01-30T08:19:11.375Z,9.60
2019-01-30T08:21:39.028Z,9.00
2019-01-30T08:26:54.281Z,9.13
2019-01-30T08:29:22.662Z,9.23
2019-01-30T08:31:52.069Z,10.10
2019-01-30T08:34:20.741Z,9.00
2019-01-30T08:36:49.084Z,10.70
2019-01-30T08:39:17.399Z,11.87
2019-01-30T08:41:45.582Z,9.50
2019-01-30T08:44:13.600Z,9.67
2019-01-30T08:46:42.221Z,11.27
2019-01-30T08:51:43.716Z,9.50
2019-01-30T08:56:52.504Z,8.23
2019-01-30T08:59:14.879Z,8.13
2019-01-30T09:01:43.330Z,10.40
2019-01-30T09:04:11.417Z,9.10
2019-01-30T09:06:40.633Z,9.17
2019-01-30T09:11:57.731Z,10.87
2019-01-30T09:14:25.770Z,10.43
2019-01-30T09:16:54.109Z,9.07
2019-01-30T09:19:22.286Z,10.23
2019-01-30T09:21:50.247Z,9.17
2019-01-30T09:24:18.226Z,9.53
2019-01-30T09:26:46.294Z,10.17
2019-01-30T09:29:13.947Z,9.00
2019-01-30T09:31:41.934Z,9.00
2019-01-30T09:34:09.890Z,11.57
2019-01-30T09:36:37.640Z,9.97
2019-01-30T09:42:00.634Z,10.67
2019-01-30T09:44:28.673Z,8.80
2019-01-30T09:46:56.982Z,10.20
2019-01-30T09:49:25.074Z,9.43
2019-01-30T09:51:53.135Z,11.23
2019-01-30T09:56:57.654Z,10.63
2019-01-30T09:59:26.066Z,13.90
2019-01-30T10:01:54.040Z,7.90
2019-01-30T10:04:41.063Z,11.50
2019-01-30T10:07:08.991Z,10.03
2019-01-30T10:14:58.755Z,9.40
2019-01-30T10:20:00.326Z,11.03
2019-01-30T10:22:32.989Z,10.90
2019-01-30T10:25:01.510Z,10.20
2019-01-30T10:27:29.910Z,10.07
2019-01-30T10:29:58.821Z,9.30
2019-01-30T10:32:27.647Z,11.93
2019-01-30T10:34:55.379Z,9.77
2019-01-30T10:37:23.030Z,8.53
2019-01-30T10:39:50.698Z,12.83
2019-01-30T10:42:19.066Z,10.50
2019-01-30T10:44:47.850Z,10.97
2019-01-30T10:47:35.091Z,13.50
2019-01-30T10:50:03.430Z,9.93
2019-01-30T10:52:31.098Z,11.30
2019-01-30T10:54:58.874Z,14.00
2019-01-30T10:57:26.891Z,11.73
2019-01-30T10:59:54.874Z,11.50
2019-01-30T11:02:22.947Z,13.50
2019-01-30T11:04:50.990Z,11.30
2019-01-30T11:12:26.493Z,12.80
2019-01-30T11:14:54.231Z,11.73
2019-01-30T11:17:22.158Z,12.77
2019-01-30T11:19:50.505Z,16.40
2019-01-30T11:22:18.422Z,16.60
2019-01-30T11:24:46.626Z,12.57
2019-01-30T11:27:14.865Z,11.27
2019-01-30T11:29:42.995Z,10.83
2019-01-30T11:34:57.830Z,12.30
2019-01-30T11:37:25.849Z,14.40
2019-01-30T11:39:54.069Z,18.97
2019-01-30T11:42:22.859Z,14.90
2019-01-30T11:49:59.555Z,15.50
2019-01-30T11:52:27.639Z,12.77
2019-01-30T11:54:55.643Z,14.97
2019-01-30T11:57:23.629Z,11.03
2019-01-30T11:59:51.909Z,13.00
2019-01-30T12:02:20.309Z,17.93
2019-01-30T12:04:48.402Z,13.23
2019-01-30T12:07:16.681Z,13.97
2019-01-30T12:09:44.673Z,10.93
2019-01-30T12:12:13.006Z,12.67
2019-01-30T12:14:40.673Z,10.90
2019-01-30T12:17:08.763Z,9.50
2019-01-30T12:19:37.137Z,13.83
2019-01-30T12:22:05.190Z,14.50
2019-01-30T12:24:33.198Z,12.07
2019-01-30T12:27:01.151Z,11.20
2019-01-30T12:29:29.217Z,11.90
2019-01-30T12:31:56.875Z,15.30
2019-01-30T12:34:28.287Z,12.57
2019-01-30T12:36:55.173Z,11.83
2019-01-30T12:39:23.155Z,11.13
2019-01-30T12:41:51.181Z,11.40
2019-01-30T12:44:19.190Z,12.03
2019-01-30T12:46:47.033Z,13.00
2019-01-30T12:49:14.698Z,12.70
2019-01-30T12:52:01.950Z,13.60
2019-01-30T12:54:30.282Z,15.77
2019-01-30T12:56:58.282Z,16.00
2019-01-30T12:59:26.259Z,14.00
2019-01-30T13:01:54.320Z,17.90
2019-01-30T13:04:22.466Z,13.20
2019-01-30T13:06:50.177Z,13.10
2019-01-30T13:09:18.548Z,14.73
2019-01-30T13:11:47.169Z,12.80
2019-01-30T13:14:15.392Z,15.03
2019-01-30T13:16:45.294Z,12.60
2019-01-30T13:19:19.145Z,14.57
2019-01-30T13:22:06.267Z,14.57
2019-01-30T13:24:38.468Z,12.13
2019-01-30T13:27:11.821Z,14.27
2019-01-30T13:29:39.804Z,12.83
2019-01-30T13:32:09.057Z,15.63
2019-01-30T13:34:37.415Z,18.00
2019-01-30T13:37:05.570Z,18.10
2019-01-30T13:42:07.542Z,16.07
2019-01-30T13:44:35.786Z,19.03
2019-01-30T13:47:03.895Z,16.23
2019-01-30T13:49:31.868Z,14.00
2019-01-30T13:52:06.922Z,15.57
2019-01-30T13:54:34.666Z,15.63
2019-01-30T13:57:02.867Z,16.03
2019-01-30T13:59:31.014Z,16.10
2019-01-30T14:01:59.357Z,15.23
2019-01-30T14:04:27.362Z,13.00
2019-01-30T14:06:55.366Z,12.30
2019-01-30T14:09:23.329Z,12.60
2019-01-30T14:11:51.397Z,13.57
2019-01-30T14:14:19.448Z,15.77
2019-01-30T14:16:47.475Z,16.73
2019-01-30T14:19:15.447Z,17.97
2019-01-30T14:21:43.855Z,16.43
2019-01-30T14:24:12.519Z,16.80
2019-01-30T14:26:40.505Z,18.10
2019-01-30T14:29:08.474Z,28.70
2019-01-30T14:31:37.129Z,29.17
2019-01-30T14:34:05.050Z,21.30
2019-01-30T14:36:32.736Z,19.10
2019-01-30T14:39:00.681Z,18.50
2019-01-30T14:41:28.353Z,17.97
2019-01-30T14:43:56.689Z,19.07
2019-01-30T14:46:24.396Z,19.40
2019-01-30T14:48:52.406Z,20.37
2019-01-30T14:51:20.082Z,20.93
2019-01-30T14:53:47.760Z,18.50
2019-01-30T14:56:16.319Z,21.27
2019-01-30T14:58:45.241Z,19.50
2019-01-30T15:01:13.489Z,22.60
2019-01-30T15:03:41.710Z,21.93
2019-01-30T15:08:43.429Z,23.40
2019-01-30T15:11:11.593Z,21.00
2019-01-30T15:16:36.548Z,18.83
2019-01-30T15:22:12.336Z,20.50
2019-01-30T15:24:39.991Z,20.60
2019-01-30T15:27:08.646Z,23.37
2019-01-30T15:29:36.813Z,21.83
2019-01-30T15:32:04.889Z,19.27
2019-01-30T15:34:32.562Z,20.50
2019-01-30T15:37:00.590Z,22.10
2019-01-30T15:39:28.663Z,23.80
2019-01-30T15:41:56.416Z,28.57
2019-01-30T15:44:25.475Z,30.53
2019-01-30T15:46:54.145Z,23.60
2019-01-30T15:49:41.514Z,22.77
2019-01-30T15:54:56.357Z,19.33
2019-01-30T15:57:24.086Z,21.87
2019-01-30T16:00:11.254Z,20.40
2019-01-30T16:02:39.193Z,20.63
2019-01-30T16:05:07.882Z,22.40
2019-01-30T16:07:36.278Z,22.97
2019-01-30T16:12:58.680Z,23.90
2019-01-30T16:18:22.305Z,21.50
2019-01-30T16:20:50.691Z,27.27
2019-01-30T16:23:37.537Z,23.53
2019-01-30T16:26:05.253Z,23.70
2019-01-30T16:28:33.758Z,24.07
2019-01-30T16:33:35.396Z,23.20
2019-01-30T16:36:03.798Z,29.63
2019-01-30T16:38:31.762Z,23.23
2019-01-30T16:40:59.832Z,25.00
2019-01-30T16:43:46.970Z,28.30
2019-01-30T16:46:14.982Z,27.67
2019-01-30T16:48:42.939Z,29.87
2019-01-30T16:51:10.586Z,26.43
2019-01-30T16:53:38.627Z,27.80
2019-01-30T16:58:53.885Z,26.13
2019-01-30T17:01:21.890Z,29.40
2019-01-30T17:03:49.892Z,24.23
2019-01-30T17:06:17.829Z,25.00
2019-01-30T17:08:45.794Z,33.77
2019-01-30T17:11:13.530Z,29.00
2019-01-30T17:13:41.629Z,30.70
2019-01-30T17:16:09.969Z,34.57
2019-01-30T17:18:37.980Z,35.00
2019-01-30T17:21:06.059Z,34.40
2019-01-30T17:23:33.954Z,31.60
2019-01-30T17:26:02.300Z,39.90
2019-01-30T17:28:30.326Z,35.00
2019-01-30T17:31:00.050Z,33.10
2019-01-30T17:33:28.255Z,36.47
2019-01-30T17:35:56.710Z,36.73
2019-01-30T17:38:25.287Z,35.60
2019-01-30T17:40:54.591Z,35.83
2019-01-30T17:43:22.251Z,37.13
2019-01-30T17:45:50.003Z,37.30
2019-01-30T17:51:25.538Z,41.13
2019-01-30T17:53:53.518Z,47.57
2019-01-30T17:56:21.681Z,44.00
2019-01-30T17:58:49.687Z,43.03
2019-01-30T18:01:18.132Z,39.50
2019-01-30T18:03:45.787Z,40.43
2019-01-30T18:06:13.501Z,40.10
2019-01-30T18:08:41.198Z,41.93
2019-01-30T18:11:27.935Z,41.23
2019-01-30T18:13:56.173Z,40.43
2019-01-30T18:16:26.745Z,37.70
2019-01-30T18:18:53.540Z,35.77
2019-01-30T18:21:21.825Z,38.90
2019-01-30T18:23:50.022Z,40.03
2019-01-30T18:26:17.933Z,35.50
2019-01-30T18:28:47.924Z,32.33
2019-01-30T18:31:15.873Z,35.40
2019-01-30T18:33:44.329Z,33.83
2019-01-30T18:36:12.479Z,32.70
2019-01-30T18:38:40.230Z,31.90
2019-01-30T18:41:08.618Z,31.63
2019-01-30T18:43:36.531Z,38.73
2019-01-30T18:46:04.397Z,37.20
2019-01-30T18:48:51.458Z,32.77
2019-01-30T18:51:19.994Z,31.07
2019-01-30T18:54:06.837Z,30.83
2019-01-30T18:56:36.528Z,33.70
2019-01-30T18:59:04.578Z,30.60
2019-01-30T19:01:32.861Z,25.47
2019-01-30T19:04:01.018Z,29.53
2019-01-30T19:06:28.688Z,31.93
2019-01-30T19:08:56.689Z,30.43
2019-01-30T19:11:24.400Z,33.57
2019-01-30T19:13:52.709Z,26.23
2019-01-30T19:16:20.654Z,24.13
2019-01-30T19:18:49.128Z,25.20
2019-01-30T19:21:18.550Z,24.30
2019-01-30T19:23:46.903Z,21.10
2019-01-30T19:26:15.410Z,22.40
2019-01-30T19:28:43.534Z,23.47
2019-01-30T19:31:11.189Z,23.50
2019-01-30T19:33:41.450Z,20.00
2019-01-30T19:36:09.489Z,20.33
2019-01-30T19:38:38.134Z,21.13
2019-01-30T19:41:06.487Z,22.23
2019-01-30T19:43:34.980Z,17.60
2019-01-30T19:46:03.367Z,16.80
2019-01-30T19:48:31.361Z,18.50
2019-01-30T19:51:01.523Z,18.63
2019-01-30T19:53:29.023Z,18.87
2019-01-30T19:58:31.206Z,15.20
2019-01-30T20:00:59.239Z,18.97
2019-01-30T20:03:31.191Z,16.90
2019-01-30T20:05:58.586Z,17.03
2019-01-30T20:08:26.606Z,19.80
2019-01-30T20:10:54.852Z,17.07
2019-01-30T20:13:22.912Z,15.27
2019-01-30T20:15:51.197Z,17.30
2019-01-30T20:18:18.865Z,16.33
2019-01-30T20:21:05.630Z,15.07
2019-01-30T20:23:33.561Z,16.53
2019-01-30T20:26:01.519Z,16.17
2019-01-30T20:28:48.574Z,15.83
2019-01-30T20:31:16.272Z,14.13
2019-01-30T20:33:44.339Z,16.20
2019-01-30T20:36:32.334Z,17.37
2019-01-30T20:39:00.029Z,17.27
2019-01-30T20:41:28.439Z,16.77
2019-01-30T20:43:56.089Z,15.60
2019-01-30T20:46:24.219Z,18.30
2019-01-30T20:48:52.230Z,16.87
2019-01-30T20:51:20.165Z,16.63
2019-01-30T20:53:48.229Z,18.10
2019-01-30T20:56:16.206Z,18.03
2019-01-30T20:58:44.381Z,17.70
2019-01-30T21:01:12.319Z,18.20
2019-01-30T21:03:40.604Z,17.90
2019-01-30T21:06:27.934Z,23.50
2019-01-30T21:08:55.902Z,17.27
2019-01-30T21:11:23.812Z,17.50
2019-01-30T21:13:51.482Z,17.40
2019-01-30T21:16:19.150Z,18.00
2019-01-30T21:19:05.914Z,16.60
2019-01-30T21:21:33.874Z,16.83
2019-01-30T21:24:02.205Z,18.50
2019-01-30T21:26:30.122Z,17.83
2019-01-30T21:28:58.596Z,16.90
2019-01-30T21:31:26.563Z,17.60
2019-01-30T21:33:54.725Z,14.30
2019-01-30T21:36:22.906Z,15.40
2019-01-30T21:38:50.977Z,14.27
2019-01-30T21:41:19.037Z,14.83
2019-01-30T21:43:46.881Z,13.63
2019-01-30T21:46:14.977Z,12.60
2019-01-30T21:48:43.258Z,13.20
2019-01-30T21:51:11.420Z,15.40
2019-01-30T21:53:39.349Z,12.70
2019-01-30T21:56:09.891Z,14.03
2019-01-30T21:58:37.162Z,13.90
2019-01-30T22:01:05.512Z,11.90
2019-01-30T22:06:27.589Z,11.70
2019-01-30T22:08:55.810Z,13.53
2019-01-30T22:11:23.457Z,10.23
2019-01-30T22:13:52.473Z,12.40
2019-01-30T22:16:20.782Z,10.30
2019-01-30T22:18:48.721Z,10.60
2019-01-30T22:21:16.937Z,14.00
2019-01-30T22:23:45.007Z,9.90
2019-01-30T22:26:13.061Z,11.10
2019-01-30T22:28:41.051Z,12.73
2019-01-30T22:31:09.006Z,12.70
2019-01-30T22:33:36.658Z,9.50
2019-01-30T22:36:04.438Z,9.40
2019-01-30T22:38:32.401Z,9.93
2019-01-30T22:41:00.153Z,7.30
2019-01-30T22:43:27.868Z,8.60
2019-01-30T22:45:56.028Z,7.80
2019-01-30T22:48:23.951Z,9.23
2019-01-30T22:50:52.308Z,8.30
2019-01-30T22:53:20.010Z,7.70
2019-01-30T22:55:47.657Z,10.47
2019-01-30T22:58:34.417Z,12.40
2019-01-30T23:01:23.947Z,9.23
2019-01-30T23:04:11.227Z,7.70
2019-01-30T23:06:58.005Z,8.77
2019-01-30T23:09:45.284Z,6.77
2019-01-30T23:12:32.297Z,6.30
2019-01-30T23:15:03.065Z,7.60
2019-01-30T23:17:50.059Z,4.93
2019-01-30T23:20:23.162Z,4.90
2019-01-30T23:23:09.905Z,7.23
2019-01-30T23:25:57.187Z,7.53
2019-01-30T23:28:44.182Z,7.40
2019-01-30T23:31:31.618Z,6.47
2019-01-30T23:34:07.385Z,6.80
2019-01-30T23:36:54.497Z,7.20
2019-01-30T23:39:41.758Z,5.43
2019-01-30T23:42:28.527Z,4.60
2019-01-30T23:45:15.542Z,5.70
2019-01-30T23:48:02.340Z,5.37
2019-01-30T23:50:41.522Z,6.03
2019-01-30T23:53:28.558Z,7.70
2019-01-30T23:56:15.818Z,5.57
2019-01-30T23:59:02.883Z,6.13
